sensor_id;sensor_type;location;lat;lon;timestamp;P1;durP1;ratioP1;P2;durP2;ratioP2
3811;SDS011;1921;49.368;11.068;2023-05-16T00:02:15;56.37;;;50.47;;
3811;SDS011;1921;49.368;11.068;2023-05-16T00:04:42;57.53;;;51.63;;
3811;SDS011;1921;49.368;11.068;2023-05-16T00:07:08;57.23;;;51.40;;
3811;SDS011;1921;49.368;11.068;2023-05-16T00:09:33;57.50;;;51.40;;
3811;SDS011;1921;49.368;11.068;2023-05-16T00:11:59;56.30;;;50.40;;
3811;SDS011;1921;49.368;11.068;2023-05-16T00:14:25;55.67;;;49.87;;
3811;SDS011;1921;49.368;11.068;2023-05-16T00:16:54;56.53;;;50.73;;
3811;SDS011;1921;49.368;11.068;2023-05-16T00:19:22;56.70;;;50.90;;
3811;SDS011;1921;49.368;11.068;2023-05-16T00:21:48;56.27;;;50.40;;
3811;SDS011;1921;49.368;11.068;2023-05-16T00:24:14;57.17;;;51.23;;
3811;SDS011;1921;49.368;11.068;2023-05-16T00:26:40;56.23;;;50.30;;
3811;SDS011;1921;49.368;11.068;2023-05-16T00:29:05;57.30;;;51.07;;
3811;SDS011;1921;49.368;11.068;2023-05-16T00:31:31;56.73;;;50.93;;
3811;SDS011;1921;49.368;11.068;2023-05-16T00:33:57;56.00;;;50.30;;
3811;SDS011;1921;49.368;11.068;2023-05-16T00:36:23;55.93;;;50.23;;
3811;SDS011;1921;49.368;11.068;2023-05-16T00:38:48;56.53;;;50.70;;
3811;SDS011;1921;49.368;11.068;2023-05-16T00:41:15;56.10;;;50.40;;
3811;SDS011;1921;49.368;11.068;2023-05-16T00:43:41;56.03;;;50.37;;
3811;SDS011;1921;49.368;11.068;2023-05-16T00:46:06;63.60;;;51.93;;
3811;SDS011;1921;49.368;11.068;2023-05-16T00:48:32;57.20;;;51.30;;
3811;SDS011;1921;49.368;11.068;2023-05-16T00:50:58;56.73;;;50.97;;
3811;SDS011;1921;49.368;11.068;2023-05-16T00:53:25;58.57;;;52.47;;
3811;SDS011;1921;49.368;11.068;2023-05-16T00:55:51;56.73;;;50.83;;
3811;SDS011;1921;49.368;11.068;2023-05-16T00:58:17;57.63;;;51.53;;
3811;SDS011;1921;49.368;11.068;2023-05-16T01:00:43;58.27;;;52.23;;
3811;SDS011;1921;49.368;11.068;2023-05-16T01:03:11;57.53;;;51.42;;
3811;SDS011;1921;49.368;11.068;2023-05-16T01:05:37;57.40;;;51.50;;
3811;SDS011;1921;49.368;11.068;2023-05-16T01:08:02;57.47;;;51.63;;
3811;SDS011;1921;49.368;11.068;2023-05-16T01:10:31;56.53;;;50.63;;
3811;SDS011;1921;49.368;11.068;2023-05-16T01:13:22;56.97;;;50.97;;
3811;SDS011;1921;49.368;11.068;2023-05-16T01:16:06;57.50;;;51.45;;
3811;SDS011;1921;49.368;11.068;2023-05-16T01:19:06;55.73;;;49.83;;
3811;SDS011;1921;49.368;11.068;2023-05-16T01:25:05;57.63;;;51.40;;
3811;SDS011;1921;49.368;11.068;2023-05-16T01:28:18;57.77;;;51.43;;
3811;SDS011;1921;49.368;11.068;2023-05-16T01:30:44;57.57;;;51.57;;
3811;SDS011;1921;49.368;11.068;2023-05-16T01:33:10;56.50;;;50.50;;
3811;SDS011;1921;49.368;11.068;2023-05-16T01:35:39;56.20;;;50.40;;
3811;SDS011;1921;49.368;11.068;2023-05-16T01:38:29;56.80;;;51.10;;
3811;SDS011;1921;49.368;11.068;2023-05-16T01:41:16;56.53;;;50.83;;
3811;SDS011;1921;49.368;11.068;2023-05-16T01:43:50;56.43;;;50.57;;
3811;SDS011;1921;49.368;11.068;2023-05-16T01:46:26;57.13;;;51.27;;
3811;SDS011;1921;49.368;11.068;2023-05-16T01:49:04;55.67;;;50.07;;
3811;SDS011;1921;49.368;11.068;2023-05-16T01:51:41;55.57;;;49.87;;
3811;SDS011;1921;49.368;11.068;2023-05-16T01:54:17;56.57;;;50.67;;
3811;SDS011;1921;49.368;11.068;2023-05-16T01:56:52;58.40;;;52.43;;
3811;SDS011;1921;49.368;11.068;2023-05-16T01:59:20;56.53;;;50.60;;
3811;SDS011;1921;49.368;11.068;2023-05-16T02:01:48;56.73;;;50.97;;
3811;SDS011;1921;49.368;11.068;2023-05-16T02:04:13;57.67;;;51.67;;
3811;SDS011;1921;49.368;11.068;2023-05-16T02:06:40;56.90;;;50.80;;
3811;SDS011;1921;49.368;11.068;2023-05-16T02:09:06;57.22;;;51.33;;
3811;SDS011;1921;49.368;11.068;2023-05-16T02:11:32;56.83;;;51.03;;
3811;SDS011;1921;49.368;11.068;2023-05-16T02:13:58;56.80;;;50.80;;
3811;SDS011;1921;49.368;11.068;2023-05-16T02:16:24;57.10;;;51.00;;
3811;SDS011;1921;49.368;11.068;2023-05-16T02:18:49;57.40;;;51.50;;
3811;SDS011;1921;49.368;11.068;2023-05-16T02:21:15;57.70;;;51.77;;
3811;SDS011;1921;49.368;11.068;2023-05-16T02:23:41;56.23;;;50.50;;
3811;SDS011;1921;49.368;11.068;2023-05-16T02:26:07;58.07;;;51.80;;
3811;SDS011;1921;49.368;11.068;2023-05-16T02:28:33;58.07;;;51.73;;
3811;SDS011;1921;49.368;11.068;2023-05-16T02:30:58;58.67;;;52.40;;
3811;SDS011;1921;49.368;11.068;2023-05-16T02:33:25;57.63;;;51.42;;
3811;SDS011;1921;49.368;11.068;2023-05-16T02:35:53;57.42;;;51.38;;
3811;SDS011;1921;49.368;11.068;2023-05-16T02:38:19;57.60;;;51.60;;
3811;SDS011;1921;49.368;11.068;2023-05-16T02:40:45;56.80;;;50.60;;
3811;SDS011;1921;49.368;11.068;2023-05-16T02:43:12;57.83;;;51.73;;
3811;SDS011;1921;49.368;11.068;2023-05-16T02:45:38;57.63;;;51.63;;
3811;SDS011;1921;49.368;11.068;2023-05-16T02:48:04;58.70;;;52.50;;
3811;SDS011;1921;49.368;11.068;2023-05-16T02:50:30;57.80;;;51.80;;
3811;SDS011;1921;49.368;11.068;2023-05-16T02:52:57;58.17;;;51.77;;
3811;SDS011;1921;49.368;11.068;2023-05-16T02:55:24;57.57;;;51.53;;
3811;SDS011;1921;49.368;11.068;2023-05-16T02:57:50;59.13;;;52.50;;
3811;SDS011;1921;49.368;11.068;2023-05-16T03:00:16;58.07;;;52.10;;
3811;SDS011;1921;49.368;11.068;2023-05-16T03:02:43;58.03;;;51.83;;
3811;SDS011;1921;49.368;11.068;2023-05-16T03:05:09;58.10;;;52.20;;
3811;SDS011;1921;49.368;11.068;2023-05-16T03:07:35;56.83;;;50.83;;
3811;SDS011;1921;49.368;11.068;2023-05-16T03:10:02;58.20;;;52.00;;
3811;SDS011;1921;49.368;11.068;2023-05-16T03:12:28;59.57;;;52.93;;
3811;SDS011;1921;49.368;11.068;2023-05-16T03:14:54;58.30;;;52.27;;
3811;SDS011;1921;49.368;11.068;2023-05-16T03:17:20;57.83;;;51.60;;
3811;SDS011;1921;49.368;11.068;2023-05-16T03:19:46;59.40;;;53.00;;
3811;SDS011;1921;49.368;11.068;2023-05-16T03:22:11;63.53;;;53.40;;
3811;SDS011;1921;49.368;11.068;2023-05-16T03:24:37;60.97;;;54.37;;
3811;SDS011;1921;49.368;11.068;2023-05-16T03:27:03;60.50;;;53.30;;
3811;SDS011;1921;49.368;11.068;2023-05-16T03:29:29;59.80;;;53.30;;
3811;SDS011;1921;49.368;11.068;2023-05-16T03:31:55;60.40;;;52.17;;
3811;SDS011;1921;49.368;11.068;2023-05-16T03:34:21;58.45;;;52.35;;
3811;SDS011;1921;49.368;11.068;2023-05-16T03:36:50;57.60;;;51.60;;
3811;SDS011;1921;49.368;11.068;2023-05-16T03:39:16;56.67;;;50.73;;
3811;SDS011;1921;49.368;11.068;2023-05-16T03:41:42;56.77;;;50.97;;
3811;SDS011;1921;49.368;11.068;2023-05-16T03:44:08;57.27;;;51.37;;
3811;SDS011;1921;49.368;11.068;2023-05-16T03:46:34;56.73;;;50.93;;
3811;SDS011;1921;49.368;11.068;2023-05-16T03:49:00;57.80;;;51.70;;
3811;SDS011;1921;49.368;11.068;2023-05-16T03:51:26;57.70;;;51.40;;
3811;SDS011;1921;49.368;11.068;2023-05-16T03:53:52;56.43;;;50.53;;
3811;SDS011;1921;49.368;11.068;2023-05-16T03:56:18;57.53;;;51.50;;
3811;SDS011;1921;49.368;11.068;2023-05-16T03:58:46;58.30;;;52.10;;
3811;SDS011;1921;49.368;11.068;2023-05-16T04:01:12;58.57;;;51.60;;
3811;SDS011;1921;49.368;11.068;2023-05-16T04:03:38;61.53;;;52.40;;
3811;SDS011;1921;49.368;11.068;2023-05-16T04:06:04;67.10;;;52.57;;
3811;SDS011;1921;49.368;11.068;2023-05-16T04:08:31;58.47;;;52.17;;
3811;SDS011;1921;49.368;11.068;2023-05-16T04:10:57;57.30;;;51.37;;
3811;SDS011;1921;49.368;11.068;2023-05-16T04:13:22;60.63;;;54.17;;
3811;SDS011;1921;49.368;11.068;2023-05-16T04:15:49;60.03;;;53.50;;
3811;SDS011;1921;49.368;11.068;2023-05-16T04:18:15;58.73;;;52.33;;
3811;SDS011;1921;49.368;11.068;2023-05-16T04:20:41;59.73;;;53.20;;
3811;SDS011;1921;49.368;11.068;2023-05-16T04:23:08;60.03;;;53.33;;
3811;SDS011;1921;49.368;11.068;2023-05-16T04:25:35;70.83;;;53.60;;
3811;SDS011;1921;49.368;11.068;2023-05-16T04:28:01;59.03;;;52.63;;
3811;SDS011;1921;49.368;11.068;2023-05-16T04:30:27;58.47;;;52.33;;
3811;SDS011;1921;49.368;11.068;2023-05-16T04:32:53;57.38;;;51.08;;
3811;SDS011;1921;49.368;11.068;2023-05-16T04:35:19;57.90;;;51.70;;
3811;SDS011;1921;49.368;11.068;2023-05-16T04:37:46;57.63;;;51.27;;
3811;SDS011;1921;49.368;11.068;2023-05-16T04:40:12;62.20;;;53.83;;
3811;SDS011;1921;49.368;11.068;2023-05-16T04:42:38;59.07;;;52.80;;
3811;SDS011;1921;49.368;11.068;2023-05-16T04:45:04;58.30;;;52.00;;
3811;SDS011;1921;49.368;11.068;2023-05-16T04:47:31;58.60;;;52.20;;
3811;SDS011;1921;49.368;11.068;2023-05-16T04:49:56;59.37;;;53.10;;
3811;SDS011;1921;49.368;11.068;2023-05-16T04:52:22;60.83;;;54.17;;
3811;SDS011;1921;49.368;11.068;2023-05-16T04:54:51;63.53;;;53.60;;
3811;SDS011;1921;49.368;11.068;2023-05-16T04:57:17;58.90;;;52.50;;
3811;SDS011;1921;49.368;11.068;2023-05-16T04:59:42;62.43;;;53.77;;
3811;SDS011;1921;49.368;11.068;2023-05-16T05:02:08;62.53;;;52.77;;
3811;SDS011;1921;49.368;11.068;2023-05-16T05:04:34;58.90;;;52.50;;
3811;SDS011;1921;49.368;11.068;2023-05-16T05:07:00;60.00;;;53.50;;
3811;SDS011;1921;49.368;11.068;2023-05-16T05:09:25;61.97;;;53.50;;
3811;SDS011;1921;49.368;11.068;2023-05-16T05:11:51;59.93;;;53.33;;
3811;SDS011;1921;49.368;11.068;2023-05-16T05:14:17;62.43;;;51.77;;
3811;SDS011;1921;49.368;11.068;2023-05-16T05:16:43;59.57;;;53.13;;
3811;SDS011;1921;49.368;11.068;2023-05-16T05:19:08;60.67;;;53.88;;
3811;SDS011;1921;49.368;11.068;2023-05-16T05:21:34;60.80;;;54.10;;
3811;SDS011;1921;49.368;11.068;2023-05-16T05:24:00;59.67;;;53.17;;
3811;SDS011;1921;49.368;11.068;2023-05-16T05:26:26;61.40;;;53.37;;
3811;SDS011;1921;49.368;11.068;2023-05-16T05:28:52;60.87;;;53.60;;
3811;SDS011;1921;49.368;11.068;2023-05-16T05:31:18;62.00;;;53.60;;
3811;SDS011;1921;49.368;11.068;2023-05-16T05:33:44;61.10;;;54.50;;
3811;SDS011;1921;49.368;11.068;2023-05-16T05:36:10;61.70;;;53.63;;
3811;SDS011;1921;49.368;11.068;2023-05-16T05:38:36;61.80;;;54.50;;
3811;SDS011;1921;49.368;11.068;2023-05-16T05:41:02;60.30;;;53.75;;
3811;SDS011;1921;49.368;11.068;2023-05-16T05:43:29;65.13;;;53.90;;
3811;SDS011;1921;49.368;11.068;2023-05-16T05:45:55;60.43;;;53.40;;
3811;SDS011;1921;49.368;11.068;2023-05-16T05:48:20;62.60;;;54.53;;
3811;SDS011;1921;49.368;11.068;2023-05-16T05:50:46;63.73;;;55.27;;
3811;SDS011;1921;49.368;11.068;2023-05-16T05:53:12;62.20;;;54.27;;
3811;SDS011;1921;49.368;11.068;2023-05-16T05:55:38;63.30;;;56.50;;
3811;SDS011;1921;49.368;11.068;2023-05-16T05:58:06;61.53;;;54.83;;
3811;SDS011;1921;49.368;11.068;2023-05-16T06:00:31;62.90;;;54.03;;
3811;SDS011;1921;49.368;11.068;2023-05-16T06:02:57;62.27;;;53.17;;
3811;SDS011;1921;49.368;11.068;2023-05-16T06:05:23;61.23;;;54.53;;
3811;SDS011;1921;49.368;11.068;2023-05-16T06:07:49;62.90;;;54.87;;
3811;SDS011;1921;49.368;11.068;2023-05-16T06:10:15;61.73;;;54.43;;
3811;SDS011;1921;49.368;11.068;2023-05-16T06:12:40;63.23;;;55.57;;
3811;SDS011;1921;49.368;11.068;2023-05-16T06:15:06;64.03;;;55.70;;
3811;SDS011;1921;49.368;11.068;2023-05-16T06:17:34;62.33;;;54.60;;
3811;SDS011;1921;49.368;11.068;2023-05-16T06:20:00;66.67;;;53.33;;
3811;SDS011;1921;49.368;11.068;2023-05-16T06:22:25;62.57;;;54.37;;
3811;SDS011;1921;49.368;11.068;2023-05-16T06:24:51;61.20;;;54.10;;
3811;SDS011;1921;49.368;11.068;2023-05-16T06:27:17;62.83;;;53.47;;
3811;SDS011;1921;49.368;11.068;2023-05-16T06:29:43;64.17;;;51.97;;
3811;SDS011;1921;49.368;11.068;2023-05-16T06:32:08;62.73;;;53.80;;
3811;SDS011;1921;49.368;11.068;2023-05-16T06:34:34;61.43;;;54.60;;
3811;SDS011;1921;49.368;11.068;2023-05-16T06:37:00;60.53;;;51.90;;
3811;SDS011;1921;49.368;11.068;2023-05-16T06:39:27;64.57;;;54.57;;
3811;SDS011;1921;49.368;11.068;2023-05-16T06:41:53;60.10;;;51.72;;
3811;SDS011;1921;49.368;11.068;2023-05-16T06:44:19;67.37;;;55.27;;
3811;SDS011;1921;49.368;11.068;2023-05-16T06:46:45;68.20;;;55.13;;
3811;SDS011;1921;49.368;11.068;2023-05-16T06:49:11;61.10;;;53.43;;
3811;SDS011;1921;49.368;11.068;2023-05-16T06:51:37;61.47;;;53.00;;
3811;SDS011;1921;49.368;11.068;2023-05-16T06:54:02;61.00;;;52.23;;
3811;SDS011;1921;49.368;11.068;2023-05-16T06:56:28;60.23;;;52.00;;
3811;SDS011;1921;49.368;11.068;2023-05-16T06:58:55;64.43;;;54.60;;
3811;SDS011;1921;49.368;11.068;2023-05-16T07:01:21;59.97;;;52.80;;
3811;SDS011;1921;49.368;11.068;2023-05-16T07:03:46;63.40;;;54.57;;
3811;SDS011;1921;49.368;11.068;2023-05-16T07:06:12;63.55;;;55.53;;
3811;SDS011;1921;49.368;11.068;2023-05-16T07:08:38;65.20;;;54.67;;
3811;SDS011;1921;49.368;11.068;2023-05-16T07:11:04;61.70;;;53.23;;
3811;SDS011;1921;49.368;11.068;2023-05-16T07:13:29;64.90;;;55.03;;
3811;SDS011;1921;49.368;11.068;2023-05-16T07:15:55;65.20;;;54.47;;
3811;SDS011;1921;49.368;11.068;2023-05-16T07:18:21;63.67;;;53.90;;
3811;SDS011;1921;49.368;11.068;2023-05-16T07:20:48;63.60;;;54.60;;
3811;SDS011;1921;49.368;11.068;2023-05-16T07:23:13;62.45;;;54.75;;
3811;SDS011;1921;49.368;11.068;2023-05-16T07:25:39;59.70;;;52.50;;
3811;SDS011;1921;49.368;11.068;2023-05-16T07:28:05;61.80;;;52.63;;
3811;SDS011;1921;49.368;11.068;2023-05-16T07:30:31;67.17;;;53.00;;
3811;SDS011;1921;49.368;11.068;2023-05-16T07:32:56;63.30;;;55.20;;
3811;SDS011;1921;49.368;11.068;2023-05-16T07:35:23;71.40;;;52.30;;
3811;SDS011;1921;49.368;11.068;2023-05-16T07:37:48;62.20;;;54.50;;
3811;SDS011;1921;49.368;11.068;2023-05-16T07:40:14;61.10;;;53.17;;
3811;SDS011;1921;49.368;11.068;2023-05-16T07:42:42;59.30;;;52.07;;
3811;SDS011;1921;49.368;11.068;2023-05-16T07:45:08;68.22;;;55.03;;
3811;SDS011;1921;49.368;11.068;2023-05-16T07:47:34;71.20;;;54.80;;
3811;SDS011;1921;49.368;11.068;2023-05-16T07:50:00;66.80;;;56.37;;
3811;SDS011;1921;49.368;11.068;2023-05-16T07:52:25;62.72;;;54.65;;
3811;SDS011;1921;49.368;11.068;2023-05-16T07:54:51;62.58;;;54.45;;
3811;SDS011;1921;49.368;11.068;2023-05-16T07:57:17;61.87;;;52.67;;
3811;SDS011;1921;49.368;11.068;2023-05-16T07:59:43;66.83;;;54.43;;
3811;SDS011;1921;49.368;11.068;2023-05-16T08:02:09;60.83;;;51.90;;
3811;SDS011;1921;49.368;11.068;2023-05-16T08:04:35;62.97;;;55.30;;
3811;SDS011;1921;49.368;11.068;2023-05-16T08:07:01;65.90;;;53.87;;
3811;SDS011;1921;49.368;11.068;2023-05-16T08:09:27;61.73;;;51.57;;
3811;SDS011;1921;49.368;11.068;2023-05-16T08:11:53;62.53;;;54.77;;
3811;SDS011;1921;49.368;11.068;2023-05-16T08:14:18;60.90;;;53.37;;
3811;SDS011;1921;49.368;11.068;2023-05-16T08:16:44;64.00;;;54.30;;
3811;SDS011;1921;49.368;11.068;2023-05-16T08:19:10;64.80;;;55.07;;
3811;SDS011;1921;49.368;11.068;2023-05-16T08:21:36;66.57;;;53.97;;
3811;SDS011;1921;49.368;11.068;2023-05-16T08:24:02;62.13;;;55.08;;
3811;SDS011;1921;49.368;11.068;2023-05-16T08:26:29;63.57;;;55.40;;
3811;SDS011;1921;49.368;11.068;2023-05-16T08:28:56;61.97;;;52.33;;
3811;SDS011;1921;49.368;11.068;2023-05-16T08:31:21;56.37;;;49.57;;
3811;SDS011;1921;49.368;11.068;2023-05-16T08:33:47;58.20;;;51.57;;
3811;SDS011;1921;49.368;11.068;2023-05-16T08:36:13;58.60;;;51.60;;
3811;SDS011;1921;49.368;11.068;2023-05-16T08:38:40;60.40;;;53.72;;
3811;SDS011;1921;49.368;11.068;2023-05-16T08:41:05;63.90;;;55.10;;
3811;SDS011;1921;49.368;11.068;2023-05-16T08:43:31;61.53;;;53.92;;
3811;SDS011;1921;49.368;11.068;2023-05-16T08:45:59;65.60;;;54.43;;
3811;SDS011;1921;49.368;11.068;2023-05-16T08:48:25;60.40;;;51.80;;
3811;SDS011;1921;49.368;11.068;2023-05-16T08:50:52;62.97;;;54.10;;
3811;SDS011;1921;49.368;11.068;2023-05-16T08:53:23;63.33;;;53.20;;
3811;SDS011;1921;49.368;11.068;2023-05-16T08:56:00;63.50;;;53.77;;
3811;SDS011;1921;49.368;11.068;2023-05-16T08:58:28;61.93;;;52.73;;
3811;SDS011;1921;49.368;11.068;2023-05-16T09:00:54;62.13;;;51.23;;
3811;SDS011;1921;49.368;11.068;2023-05-16T09:03:20;61.73;;;53.23;;
3811;SDS011;1921;49.368;11.068;2023-05-16T09:05:49;62.77;;;54.60;;
3811;SDS011;1921;49.368;11.068;2023-05-16T09:08:14;60.40;;;52.83;;
3811;SDS011;1921;49.368;11.068;2023-05-16T09:10:40;61.17;;;53.72;;
3811;SDS011;1921;49.368;11.068;2023-05-16T09:13:06;60.85;;;51.70;;
3811;SDS011;1921;49.368;11.068;2023-05-16T09:15:32;59.40;;;51.40;;
3811;SDS011;1921;49.368;11.068;2023-05-16T09:18:01;63.20;;;52.23;;
3811;SDS011;1921;49.368;11.068;2023-05-16T09:20:28;60.67;;;52.00;;
3811;SDS011;1921;49.368;11.068;2023-05-16T09:22:56;61.40;;;53.37;;
3811;SDS011;1921;49.368;11.068;2023-05-16T09:25:25;61.37;;;53.63;;
3811;SDS011;1921;49.368;11.068;2023-05-16T09:27:53;62.70;;;53.63;;
3811;SDS011;1921;49.368;11.068;2023-05-16T09:30:27;63.17;;;54.63;;
3811;SDS011;1921;49.368;11.068;2023-05-16T09:33:01;61.60;;;53.97;;
3811;SDS011;1921;49.368;11.068;2023-05-16T09:35:26;60.90;;;52.63;;
3811;SDS011;1921;49.368;11.068;2023-05-16T09:37:52;62.25;;;52.55;;
3811;SDS011;1921;49.368;11.068;2023-05-16T09:40:21;61.67;;;53.37;;
3811;SDS011;1921;49.368;11.068;2023-05-16T09:42:53;67.55;;;53.35;;
3811;SDS011;1921;49.368;11.068;2023-05-16T09:45:31;70.20;;;55.57;;
3811;SDS011;1921;49.368;11.068;2023-05-16T09:48:05;62.97;;;54.22;;
3811;SDS011;1921;49.368;11.068;2023-05-16T09:50:33;64.07;;;53.87;;
3811;SDS011;1921;49.368;11.068;2023-05-16T09:53:01;62.73;;;53.73;;
3811;SDS011;1921;49.368;11.068;2023-05-16T09:55:28;70.03;;;56.70;;
3811;SDS011;1921;49.368;11.068;2023-05-16T09:57:55;60.70;;;53.07;;
3811;SDS011;1921;49.368;11.068;2023-05-16T10:00:20;65.87;;;55.93;;
3811;SDS011;1921;49.368;11.068;2023-05-16T10:02:46;63.63;;;53.40;;
3811;SDS011;1921;49.368;11.068;2023-05-16T10:05:13;65.40;;;53.47;;
3811;SDS011;1921;49.368;11.068;2023-05-16T10:07:41;63.23;;;56.20;;
3811;SDS011;1921;49.368;11.068;2023-05-16T10:10:08;68.60;;;56.10;;
3811;SDS011;1921;49.368;11.068;2023-05-16T10:12:34;64.50;;;55.23;;
3811;SDS011;1921;49.368;11.068;2023-05-16T10:15:02;65.97;;;54.30;;
3811;SDS011;1921;49.368;11.068;2023-05-16T10:17:30;68.60;;;54.30;;
3811;SDS011;1921;49.368;11.068;2023-05-16T10:20:01;67.57;;;55.80;;
3811;SDS011;1921;49.368;11.068;2023-05-16T10:22:35;61.73;;;52.97;;
3811;SDS011;1921;49.368;11.068;2023-05-16T10:27:46;66.15;;;55.63;;
3811;SDS011;1921;49.368;11.068;2023-05-16T10:30:12;65.60;;;53.23;;
3811;SDS011;1921;49.368;11.068;2023-05-16T10:32:39;64.23;;;53.47;;
3811;SDS011;1921;49.368;11.068;2023-05-16T10:35:06;60.00;;;52.80;;
3811;SDS011;1921;49.368;11.068;2023-05-16T10:37:33;65.90;;;53.60;;
3811;SDS011;1921;49.368;11.068;2023-05-16T10:40:00;60.93;;;52.37;;
3811;SDS011;1921;49.368;11.068;2023-05-16T10:42:30;60.42;;;53.55;;
3811;SDS011;1921;49.368;11.068;2023-05-16T10:45:18;61.00;;;52.60;;
3811;SDS011;1921;49.368;11.068;2023-05-16T10:47:50;63.80;;;54.37;;
3811;SDS011;1921;49.368;11.068;2023-05-16T10:53:32;64.67;;;54.03;;
3811;SDS011;1921;49.368;11.068;2023-05-16T11:01:19;63.60;;;52.80;;
3811;SDS011;1921;49.368;11.068;2023-05-16T11:14:37;62.10;;;53.83;;
3811;SDS011;1921;49.368;11.068;2023-05-16T11:17:12;64.73;;;53.27;;
3811;SDS011;1921;49.368;11.068;2023-05-16T11:19:54;62.33;;;52.33;;
3811;SDS011;1921;49.368;11.068;2023-05-16T11:25:05;61.13;;;52.80;;
3811;SDS011;1921;49.368;11.068;2023-05-16T11:27:34;62.63;;;53.40;;
3811;SDS011;1921;49.368;11.068;2023-05-16T11:30:12;59.90;;;52.33;;
3811;SDS011;1921;49.368;11.068;2023-05-16T11:32:41;58.53;;;50.93;;
3811;SDS011;1921;49.368;11.068;2023-05-16T11:35:10;59.77;;;52.30;;
3811;SDS011;1921;49.368;11.068;2023-05-16T11:37:39;60.50;;;51.60;;
3811;SDS011;1921;49.368;11.068;2023-05-16T11:40:05;62.00;;;50.97;;
3811;SDS011;1921;49.368;11.068;2023-05-16T11:42:34;63.00;;;53.20;;
3811;SDS011;1921;49.368;11.068;2023-05-16T11:45:10;63.90;;;53.17;;
3811;SDS011;1921;49.368;11.068;2023-05-16T11:47:40;62.47;;;52.60;;
3811;SDS011;1921;49.368;11.068;2023-05-16T11:50:18;61.60;;;53.27;;
3811;SDS011;1921;49.368;11.068;2023-05-16T11:52:48;61.90;;;52.87;;
3811;SDS011;1921;49.368;11.068;2023-05-16T11:55:18;60.40;;;51.87;;
3811;SDS011;1921;49.368;11.068;2023-05-16T11:57:47;61.37;;;51.80;;
3811;SDS011;1921;49.368;11.068;2023-05-16T12:00:16;58.80;;;50.47;;
3811;SDS011;1921;49.368;11.068;2023-05-16T12:02:48;59.17;;;51.97;;
3811;SDS011;1921;49.368;11.068;2023-05-16T12:05:15;59.77;;;52.80;;
3811;SDS011;1921;49.368;11.068;2023-05-16T12:07:42;65.17;;;54.20;;
3811;SDS011;1921;49.368;11.068;2023-05-16T12:10:09;60.67;;;53.03;;
3811;SDS011;1921;49.368;11.068;2023-05-16T12:12:41;60.00;;;52.50;;
3811;SDS011;1921;49.368;11.068;2023-05-16T12:15:10;59.00;;;51.47;;
3811;SDS011;1921;49.368;11.068;2023-05-16T12:17:37;58.30;;;51.07;;
3811;SDS011;1921;49.368;11.068;2023-05-16T12:20:05;58.73;;;50.40;;
3811;SDS011;1921;49.368;11.068;2023-05-16T12:22:39;57.27;;;50.83;;
3811;SDS011;1921;49.368;11.068;2023-05-16T12:28:00;59.88;;;52.65;;
3811;SDS011;1921;49.368;11.068;2023-05-16T12:30:28;58.13;;;50.90;;
3811;SDS011;1921;49.368;11.068;2023-05-16T12:35:23;58.03;;;49.70;;
3811;SDS011;1921;49.368;11.068;2023-05-16T12:37:54;70.90;;;52.30;;
3811;SDS011;1921;49.368;11.068;2023-05-16T12:40:20;58.20;;;50.80;;
3811;SDS011;1921;49.368;11.068;2023-05-16T12:42:49;59.87;;;51.97;;
3811;SDS011;1921;49.368;11.068;2023-05-16T12:45:16;59.27;;;52.60;;
3811;SDS011;1921;49.368;11.068;2023-05-16T12:47:42;57.33;;;51.03;;
3811;SDS011;1921;49.368;11.068;2023-05-16T12:50:10;61.03;;;51.83;;
3811;SDS011;1921;49.368;11.068;2023-05-16T12:52:53;59.50;;;52.50;;
3811;SDS011;1921;49.368;11.068;2023-05-16T12:55:24;59.60;;;51.30;;
3811;SDS011;1921;49.368;11.068;2023-05-16T12:57:51;70.43;;;53.20;;
3811;SDS011;1921;49.368;11.068;2023-05-16T13:00:19;64.45;;;52.95;;
3811;SDS011;1921;49.368;11.068;2023-05-16T13:02:46;59.37;;;51.90;;
3811;SDS011;1921;49.368;11.068;2023-05-16T13:05:12;60.33;;;52.40;;
3811;SDS011;1921;49.368;11.068;2023-05-16T13:07:38;62.67;;;52.33;;
3811;SDS011;1921;49.368;11.068;2023-05-16T13:10:08;62.80;;;52.23;;
3811;SDS011;1921;49.368;11.068;2023-05-16T13:12:38;59.13;;;51.63;;
3811;SDS011;1921;49.368;11.068;2023-05-16T13:15:05;60.20;;;52.00;;
3811;SDS011;1921;49.368;11.068;2023-05-16T13:17:35;60.10;;;51.90;;
3811;SDS011;1921;49.368;11.068;2023-05-16T13:20:03;62.47;;;53.27;;
3811;SDS011;1921;49.368;11.068;2023-05-16T13:22:37;58.47;;;51.40;;
3811;SDS011;1921;49.368;11.068;2023-05-16T13:25:04;59.67;;;51.30;;
3811;SDS011;1921;49.368;11.068;2023-05-16T13:27:30;59.10;;;51.73;;
3811;SDS011;1921;49.368;11.068;2023-05-16T13:29:57;59.67;;;51.07;;
3811;SDS011;1921;49.368;11.068;2023-05-16T13:32:23;60.23;;;51.23;;
3811;SDS011;1921;49.368;11.068;2023-05-16T13:34:49;59.60;;;52.00;;
3811;SDS011;1921;49.368;11.068;2023-05-16T13:37:15;62.85;;;52.15;;
3811;SDS011;1921;49.368;11.068;2023-05-16T13:39:44;58.20;;;51.37;;
3811;SDS011;1921;49.368;11.068;2023-05-16T13:42:10;60.77;;;52.37;;
3811;SDS011;1921;49.368;11.068;2023-05-16T13:44:36;58.55;;;51.45;;
3811;SDS011;1921;49.368;11.068;2023-05-16T13:47:02;58.20;;;51.43;;
3811;SDS011;1921;49.368;11.068;2023-05-16T13:49:28;58.00;;;51.70;;
3811;SDS011;1921;49.368;11.068;2023-05-16T13:51:53;59.53;;;51.70;;
3811;SDS011;1921;49.368;11.068;2023-05-16T13:54:19;57.90;;;49.77;;
3811;SDS011;1921;49.368;11.068;2023-05-16T13:56:46;57.30;;;50.50;;
3811;SDS011;1921;49.368;11.068;2023-05-16T13:59:12;57.23;;;50.50;;
3811;SDS011;1921;49.368;11.068;2023-05-16T14:01:38;62.10;;;49.93;;
3811;SDS011;1921;49.368;11.068;2023-05-16T14:04:04;56.67;;;49.80;;
3811;SDS011;1921;49.368;11.068;2023-05-16T14:06:30;55.90;;;49.80;;
3811;SDS011;1921;49.368;11.068;2023-05-16T14:08:55;57.43;;;51.13;;
3811;SDS011;1921;49.368;11.068;2023-05-16T14:11:21;56.97;;;50.73;;
3811;SDS011;1921;49.368;11.068;2023-05-16T14:13:51;55.27;;;49.37;;
3811;SDS011;1921;49.368;11.068;2023-05-16T14:16:20;54.30;;;48.47;;
3811;SDS011;1921;49.368;11.068;2023-05-16T14:18:46;55.00;;;49.00;;
3811;SDS011;1921;49.368;11.068;2023-05-16T14:21:12;55.53;;;49.53;;
3811;SDS011;1921;49.368;11.068;2023-05-16T14:23:38;55.33;;;49.42;;
3811;SDS011;1921;49.368;11.068;2023-05-16T14:26:04;54.10;;;48.30;;
3811;SDS011;1921;49.368;11.068;2023-05-16T14:28:30;55.13;;;49.20;;
3811;SDS011;1921;49.368;11.068;2023-05-16T14:30:58;55.27;;;49.27;;
3811;SDS011;1921;49.368;11.068;2023-05-16T14:33:25;55.70;;;49.80;;
3811;SDS011;1921;49.368;11.068;2023-05-16T14:35:51;54.23;;;48.33;;
3811;SDS011;1921;49.368;11.068;2023-05-16T14:38:17;54.00;;;48.30;;
3811;SDS011;1921;49.368;11.068;2023-05-16T14:40:44;55.53;;;48.70;;
3811;SDS011;1921;49.368;11.068;2023-05-16T14:43:09;53.77;;;48.10;;
3811;SDS011;1921;49.368;11.068;2023-05-16T14:45:36;55.07;;;49.20;;
3811;SDS011;1921;49.368;11.068;2023-05-16T14:48:03;53.53;;;47.80;;
3811;SDS011;1921;49.368;11.068;2023-05-16T14:50:31;56.28;;;48.28;;
3811;SDS011;1921;49.368;11.068;2023-05-16T14:52:56;53.73;;;48.03;;
3811;SDS011;1921;49.368;11.068;2023-05-16T14:55:22;53.80;;;48.20;;
3811;SDS011;1921;49.368;11.068;2023-05-16T14:57:48;54.13;;;48.43;;
3811;SDS011;1921;49.368;11.068;2023-05-16T15:00:14;56.07;;;49.97;;
3811;SDS011;1921;49.368;11.068;2023-05-16T15:02:41;54.17;;;48.47;;
3811;SDS011;1921;49.368;11.068;2023-05-16T15:05:07;53.80;;;48.10;;
3811;SDS011;1921;49.368;11.068;2023-05-16T15:07:33;54.67;;;48.97;;
3811;SDS011;1921;49.368;11.068;2023-05-16T15:09:59;53.72;;;48.15;;